Tozeur, Tozeur Nefta International Airport (DTTZ)

NameTozeur Nefta International Airport
CityTozeur
CountryTunisia
ICAODTTZ
IATATOE
Altitude87 m
CoordinatesGoogle Map
Live Air TrafficLiveATC.net
METARDTTZ 251700Z 06010KT 7000 SCT026 28/06 Q1005 NOSIG
2020-04-25 17:00:00 Wind: Northeast (60°) 5.14 m/s - Visibility: 7000 m - Temperature: 28 °C - Dew point: 6 °C - Humidity: 24.7% - Pressure: 1005 hPa

Sorry, no flights used the airport in this database.